createdAt,value
2018-10-11T00:00:44.779Z,13.82
2018-10-11T00:01:44.694Z,13.78
2018-10-11T00:07:31.893Z,13.67
2018-10-11T00:08:45.627Z,13.52
2018-10-11T00:09:30.862Z,13.55
2018-10-11T00:17:33.724Z,13.44
2018-10-11T00:18:31.881Z,13.42
2018-10-11T00:19:30.889Z,13.38
2018-10-11T00:20:28.870Z,13.38
2018-10-11T00:21:30.025Z,13.42
2018-10-11T00:22:29.820Z,13.44
2018-10-11T00:23:30.428Z,13.48
2018-10-11T00:24:33.443Z,13.48
2018-10-11T00:33:05.872Z,13.30
2018-10-11T00:33:47.377Z,13.29
2018-10-11T00:36:18.113Z,13.25
2018-10-11T01:00:02.276Z,13.28
2018-10-11T01:01:03.447Z,13.12
2018-10-11T01:04:12.412Z,13.29
2018-10-11T01:16:06.730Z,13.19
2018-10-11T01:18:24.728Z,12.97
2018-10-11T01:19:24.888Z,12.96
2018-10-11T01:20:24.814Z,12.97
2018-10-11T01:23:52.077Z,12.85
2018-10-11T01:26:30.419Z,12.82
2018-10-11T01:43:46.915Z,12.77
2018-10-11T01:44:46.377Z,12.85
2018-10-11T01:47:22.373Z,12.87
2018-10-11T01:48:21.607Z,12.85
2018-10-11T01:49:21.514Z,12.82
2018-10-11T01:53:19.929Z,12.82
2018-10-11T01:54:39.518Z,12.82
2018-10-11T01:55:20.165Z,12.78
2018-10-11T01:56:19.979Z,12.87
2018-10-11T01:57:20.625Z,12.83
2018-10-11T01:58:20.695Z,12.71
2018-10-11T01:59:19.872Z,12.68
2018-10-11T02:00:19.836Z,12.64
2018-10-11T02:01:34.367Z,12.57
2018-10-11T02:02:20.804Z,12.50
2018-10-11T02:03:20.319Z,12.53
2018-10-11T02:04:20.864Z,12.53
2018-10-11T02:05:19.893Z,12.56
2018-10-11T02:06:19.875Z,12.56
2018-10-11T02:07:19.897Z,12.53
2018-10-11T02:08:21.654Z,12.56
2018-10-11T02:09:28.171Z,12.60
2018-10-11T02:11:32.362Z,12.64
2018-10-11T02:12:55.829Z,12.64
2018-10-11T02:13:32.815Z,12.72
2018-10-11T02:14:56.026Z,12.65
2018-10-11T02:15:32.901Z,12.62
2018-10-11T02:16:31.853Z,12.60
2018-10-11T02:17:33.726Z,12.64
2018-10-11T02:18:38.736Z,12.62
2018-10-11T02:19:32.790Z,12.64
2018-10-11T02:20:32.749Z,12.62
2018-10-11T02:21:31.765Z,12.67
2018-10-11T02:22:32.824Z,12.64
2018-10-11T02:23:35.710Z,12.64
2018-10-11T02:29:11.687Z,12.52
2018-10-11T02:30:35.986Z,12.50
2018-10-11T02:31:09.161Z,12.42
2018-10-11T02:32:09.887Z,12.39
2018-10-11T02:35:18.141Z,12.28
2018-10-11T02:36:29.682Z,12.27
2018-10-11T02:37:29.156Z,12.24
2018-10-11T02:38:19.164Z,12.24
2018-10-11T02:39:18.273Z,12.27
2018-10-11T02:40:50.143Z,12.23
2018-10-11T02:41:20.899Z,12.34
2018-10-11T02:42:18.713Z,12.53
2018-10-11T02:43:17.654Z,12.45
2018-10-11T02:44:17.709Z,12.54
2018-10-11T02:47:17.191Z,12.42
2018-10-11T02:48:15.783Z,12.42
2018-10-11T02:50:34.700Z,12.45
2018-10-11T02:52:54.207Z,12.54
2018-10-11T02:56:47.897Z,12.32
2018-10-11T02:57:35.999Z,12.23
2018-10-11T02:58:48.336Z,12.31
2018-10-11T02:59:36.750Z,12.38
2018-10-11T03:00:36.274Z,12.35
2018-10-11T03:01:35.813Z,12.41
2018-10-11T03:02:53.798Z,12.29
2018-10-11T03:03:35.860Z,12.34
2018-10-11T03:04:36.670Z,12.28
2018-10-11T03:08:04.810Z,12.31
2018-10-11T03:16:09.142Z,12.16
2018-10-11T03:16:47.071Z,12.07
2018-10-11T03:19:19.181Z,12.19
2018-10-11T03:20:18.957Z,12.09
2018-10-11T03:21:18.888Z,12.04
2018-10-11T03:24:37.329Z,12.04
2018-10-11T03:37:29.105Z,11.96
2018-10-11T03:41:19.996Z,12.05
2018-10-11T03:42:06.515Z,11.96
2018-10-11T03:47:09.914Z,11.86
2018-10-11T03:48:08.130Z,11.88
2018-10-11T03:49:08.897Z,11.86
2018-10-11T03:50:30.852Z,11.73
2018-10-11T03:53:35.127Z,11.78
2018-10-11T03:56:57.618Z,11.76
2018-10-11T03:59:48.787Z,11.76
2018-10-11T04:03:41.943Z,12.04
2018-10-11T04:04:52.396Z,11.95
2018-10-11T04:05:39.076Z,12.01
2018-10-11T04:06:39.135Z,12.19
2018-10-11T04:08:55.348Z,12.37
2018-10-11T04:09:55.357Z,12.37
2018-10-11T04:10:56.090Z,12.24
2018-10-11T04:11:55.051Z,12.31
2018-10-11T04:12:54.853Z,12.28
2018-10-11T04:13:55.832Z,12.17
2018-10-11T04:15:04.057Z,12.14
2018-10-11T04:15:55.360Z,12.13
2018-10-11T04:16:55.494Z,12.10
2018-10-11T04:17:55.015Z,12.05
2018-10-11T04:18:55.031Z,11.95
2018-10-11T04:19:54.835Z,12.07
2018-10-11T04:20:54.870Z,11.95
2018-10-11T04:21:54.871Z,11.94
2018-10-11T04:22:54.891Z,11.95
2018-10-11T04:28:27.332Z,12.23
2018-10-11T04:29:25.371Z,12.57
2018-10-11T04:30:25.378Z,12.53
2018-10-11T04:32:44.778Z,12.57
2018-10-11T04:33:44.509Z,12.45
2018-10-11T04:35:28.688Z,12.41
2018-10-11T04:35:43.704Z,12.50
2018-10-11T04:38:39.310Z,12.32
2018-10-11T04:39:40.011Z,12.19
2018-10-11T04:40:40.000Z,12.31
2018-10-11T04:41:38.919Z,12.28
2018-10-11T04:42:40.086Z,12.56
2018-10-11T04:43:40.558Z,12.64
2018-10-11T04:44:38.945Z,12.68
2018-10-11T04:45:39.799Z,12.59
2018-10-11T04:48:32.821Z,12.54
2018-10-11T04:49:34.358Z,12.56
2018-10-11T04:50:33.836Z,12.65
2018-10-11T04:51:32.778Z,12.86
2018-10-11T04:52:32.806Z,12.82
2018-10-11T04:56:31.869Z,12.68
2018-10-11T04:57:31.991Z,12.57
2018-10-11T04:58:31.617Z,12.46
2018-10-11T04:59:31.651Z,12.41
2018-10-11T05:02:37.067Z,12.37
2018-10-11T05:03:44.695Z,12.29
2018-10-11T05:04:35.584Z,12.32
2018-10-11T05:05:35.846Z,12.32
2018-10-11T05:06:35.366Z,12.19
2018-10-11T05:07:35.191Z,12.23
2018-10-11T05:08:35.216Z,12.17
2018-10-11T05:09:35.168Z,12.21
2018-10-11T05:10:35.129Z,12.23
2018-10-11T05:11:37.007Z,12.42
2018-10-11T05:12:35.123Z,12.50
2018-10-11T05:13:35.084Z,12.54
2018-10-11T05:14:35.031Z,12.54
2018-10-11T05:15:35.052Z,12.46
2018-10-11T05:16:35.047Z,12.42
2018-10-11T05:17:35.062Z,12.57
2018-10-11T05:18:34.992Z,12.50
2018-10-11T05:19:35.955Z,12.45
2018-10-11T05:20:34.938Z,12.47
2018-10-11T05:21:36.013Z,12.53
2018-10-11T05:22:34.946Z,12.56
2018-10-11T05:23:34.993Z,12.42
2018-10-11T05:24:34.949Z,12.42
2018-10-11T05:25:34.926Z,12.41
2018-10-11T05:26:34.899Z,12.42
2018-10-11T05:27:34.907Z,12.37
2018-10-11T05:28:35.003Z,12.32
2018-10-11T05:29:34.892Z,12.32
2018-10-11T05:30:34.830Z,12.38
2018-10-11T05:31:34.834Z,12.53
2018-10-11T05:32:34.831Z,12.53
2018-10-11T05:33:34.821Z,12.53
2018-10-11T05:34:34.847Z,12.54
2018-10-11T05:35:34.804Z,12.46
2018-10-11T05:36:34.782Z,12.28
2018-10-11T05:37:34.777Z,12.28
2018-10-11T05:38:34.785Z,12.28
2018-10-11T05:39:34.763Z,12.20
2018-10-11T05:40:34.752Z,12.27
2018-10-11T05:41:34.773Z,12.49
2018-10-11T05:42:34.728Z,12.50
2018-10-11T05:43:34.711Z,12.56
2018-10-11T05:44:34.823Z,12.54
2018-10-11T05:45:34.703Z,12.45
2018-10-11T05:46:34.693Z,12.42
2018-10-11T05:47:34.684Z,12.42
2018-10-11T05:48:34.649Z,12.46
2018-10-11T05:49:35.658Z,12.41
2018-10-11T05:50:34.693Z,12.29
2018-10-11T05:51:34.648Z,12.34
2018-10-11T05:52:34.590Z,12.29
2018-10-11T05:53:34.573Z,12.27
2018-10-11T05:54:35.516Z,12.24
2018-10-11T05:55:34.665Z,12.28
2018-10-11T05:56:35.047Z,12.31
2018-10-11T05:57:34.558Z,12.31
2018-10-11T05:58:34.557Z,12.32
2018-10-11T05:59:34.553Z,12.29
2018-10-11T06:00:34.509Z,12.28
2018-10-11T06:01:34.504Z,12.28
2018-10-11T06:02:34.510Z,12.27
2018-10-11T06:03:34.547Z,12.29
2018-10-11T06:04:34.570Z,12.27
2018-10-11T06:05:34.453Z,12.31
2018-10-11T06:06:34.464Z,12.35
2018-10-11T06:07:34.514Z,12.32
2018-10-11T06:08:34.423Z,12.29
2018-10-11T06:09:34.372Z,12.34
2018-10-11T06:10:34.487Z,12.29
2018-10-11T06:11:34.357Z,12.42
2018-10-11T06:12:34.422Z,12.46
2018-10-11T06:13:34.978Z,12.39
2018-10-11T06:14:34.325Z,12.54
2018-10-11T06:15:34.332Z,12.53
2018-10-11T06:16:34.316Z,12.50
2018-10-11T06:17:34.303Z,12.64
2018-10-11T06:18:34.361Z,12.54
2018-10-11T06:19:34.333Z,12.56
2018-10-11T06:20:34.249Z,12.62
2018-10-11T06:21:34.278Z,12.67
2018-10-11T06:22:34.231Z,12.72
2018-10-11T06:23:34.256Z,12.62
2018-10-11T06:24:34.302Z,12.68
2018-10-11T06:25:55.329Z,12.65
2018-10-11T06:26:34.236Z,12.68
2018-10-11T06:27:34.201Z,12.59
2018-10-11T06:28:34.169Z,12.56
2018-10-11T06:29:34.243Z,12.67
2018-10-11T06:30:34.174Z,12.64
2018-10-11T06:31:34.122Z,12.65
2018-10-11T06:32:34.122Z,12.77
2018-10-11T06:33:34.136Z,12.79
2018-10-11T06:34:34.093Z,12.79
2018-10-11T06:35:34.146Z,12.90
2018-10-11T06:36:34.149Z,12.90
2018-10-11T06:37:34.056Z,12.92
2018-10-11T06:38:34.073Z,13.07
2018-10-11T06:39:34.063Z,13.10
2018-10-11T06:40:34.540Z,13.10
2018-10-11T06:41:34.055Z,13.10
2018-10-11T06:42:34.013Z,13.22
2018-10-11T06:43:34.034Z,13.11
2018-10-11T06:44:34.013Z,13.12
2018-10-11T06:45:34.012Z,13.26
2018-10-11T06:46:34.005Z,13.25
2018-10-11T06:47:33.946Z,13.19
2018-10-11T06:48:33.955Z,13.15
2018-10-11T06:49:33.915Z,13.12
2018-10-11T06:50:33.898Z,13.22
2018-10-11T06:51:33.899Z,13.20
2018-10-11T06:52:33.890Z,13.23
2018-10-11T06:53:33.877Z,13.28
2018-10-11T06:54:33.888Z,13.22
2018-10-11T06:55:33.913Z,13.29
2018-10-11T06:56:34.019Z,13.33
2018-10-11T06:57:33.888Z,13.45
2018-10-11T06:58:33.843Z,13.39
2018-10-11T06:59:33.814Z,13.44
2018-10-11T07:00:33.827Z,13.45
2018-10-11T07:01:33.804Z,13.42
2018-10-11T07:02:33.839Z,13.49
2018-10-11T07:03:33.781Z,13.57
2018-10-11T07:04:33.768Z,13.51
2018-10-11T07:05:33.761Z,13.60
2018-10-11T07:06:33.744Z,13.57
2018-10-11T07:07:33.784Z,13.69
2018-10-11T07:08:33.714Z,13.59
2018-10-11T07:09:33.712Z,13.69
2018-10-11T07:10:33.689Z,13.66
2018-10-11T07:11:33.688Z,13.69
2018-10-11T07:12:33.672Z,13.77
2018-10-11T07:13:33.743Z,13.78
2018-10-11T07:14:33.681Z,13.75
2018-10-11T07:15:33.675Z,13.77
2018-10-11T07:16:33.642Z,13.84
2018-10-11T07:17:33.641Z,13.79
2018-10-11T07:18:33.649Z,13.87
2018-10-11T07:19:33.894Z,13.85
2018-10-11T07:20:33.601Z,13.92
2018-10-11T07:21:33.570Z,13.99
2018-10-11T07:22:33.542Z,14.04
2018-10-11T07:23:33.568Z,14.02
2018-10-11T07:24:34.559Z,14.03
2018-10-11T07:29:40.584Z,14.07
2018-10-11T07:30:30.779Z,14.12
2018-10-11T07:31:30.426Z,14.09
2018-10-11T07:32:31.353Z,13.99
2018-10-11T07:33:30.363Z,14.09
2018-10-11T07:34:30.354Z,14.04
2018-10-11T07:35:30.373Z,14.00
2018-10-11T07:36:50.211Z,14.07
2018-10-11T07:37:30.730Z,14.03
2018-10-11T07:38:30.603Z,14.03
2018-10-11T07:39:31.696Z,13.99
2018-10-11T07:40:31.357Z,14.04
2018-10-11T07:41:31.277Z,14.06
2018-10-11T07:42:30.269Z,14.04
2018-10-11T07:43:30.187Z,14.22
2018-10-11T07:44:30.190Z,14.25
2018-10-11T07:45:30.702Z,14.32
2018-10-11T07:46:30.205Z,14.33
2018-10-11T07:47:30.225Z,14.27
2018-10-11T07:48:30.162Z,14.39
2018-10-11T07:49:30.789Z,14.28
2018-10-11T07:50:30.114Z,14.36
2018-10-11T07:51:30.143Z,14.18
2018-10-11T07:52:30.122Z,14.21
2018-10-11T07:53:30.096Z,14.21
2018-10-11T07:54:30.049Z,14.29
2018-10-11T07:55:30.060Z,14.29
2018-10-11T07:56:30.231Z,14.24
2018-10-11T07:57:30.722Z,14.22
2018-10-11T07:58:30.059Z,14.22
2018-10-11T07:59:30.028Z,14.25
2018-10-11T08:00:30.035Z,14.35
2018-10-11T08:01:30.042Z,14.51
2018-10-11T08:02:31.061Z,14.54
2018-10-11T08:03:30.998Z,14.69
2018-10-11T08:04:30.010Z,14.77
2018-10-11T08:05:29.950Z,14.88
2018-10-11T08:06:29.955Z,14.80
2018-10-11T08:07:30.094Z,14.88
2018-10-11T08:08:30.039Z,14.95
2018-10-11T08:09:29.905Z,14.96
2018-10-11T08:10:40.917Z,14.94
2018-10-11T08:11:29.947Z,14.94
2018-10-11T08:12:29.838Z,14.94
2018-10-11T08:13:29.957Z,14.92
2018-10-11T08:14:29.861Z,14.92
2018-10-11T08:15:29.839Z,14.96
2018-10-11T08:16:29.889Z,15.11
2018-10-11T08:17:30.351Z,15.02
2018-10-11T08:18:29.884Z,14.99
2018-10-11T08:19:30.056Z,15.09
2018-10-11T08:20:29.769Z,15.09
2018-10-11T08:21:29.790Z,15.16
2018-10-11T08:22:29.718Z,15.09
2018-10-11T08:23:29.703Z,15.14
2018-10-11T08:24:30.068Z,15.10
2018-10-11T08:25:29.939Z,15.20
2018-10-11T08:26:31.042Z,15.29
2018-10-11T08:27:29.704Z,15.35
2018-10-11T08:28:29.645Z,15.38
2018-10-11T08:29:29.674Z,15.32
2018-10-11T08:30:29.675Z,15.50
2018-10-11T08:31:29.676Z,15.38
2018-10-11T08:32:29.860Z,15.43
2018-10-11T08:33:29.655Z,15.44
2018-10-11T08:34:29.643Z,15.39
2018-10-11T08:35:29.658Z,15.49
2018-10-11T08:36:29.638Z,15.44
2018-10-11T08:37:29.661Z,15.44
2018-10-11T08:38:29.678Z,15.56
2018-10-11T08:39:29.586Z,15.60
2018-10-11T08:42:13.471Z,15.60
2018-10-11T08:42:43.873Z,15.57
2018-10-11T08:43:43.829Z,15.60
2018-10-11T08:44:44.208Z,15.60
2018-10-11T08:45:43.852Z,15.54
2018-10-11T08:46:44.586Z,15.64
2018-10-11T08:47:45.724Z,15.53
2018-10-11T08:48:43.711Z,15.65
2018-10-11T08:49:43.759Z,15.72
2018-10-11T08:50:43.720Z,15.83
2018-10-11T08:51:43.678Z,15.90
2018-10-11T08:52:43.699Z,15.93
2018-10-11T08:53:43.801Z,16.04
2018-10-11T08:54:45.750Z,15.94
2018-10-11T08:57:01.261Z,16.02
2018-10-11T08:58:01.333Z,15.97
2018-10-11T08:59:01.097Z,16.05
2018-10-11T09:00:01.059Z,16.00
2018-10-11T09:01:00.817Z,16.02
2018-10-11T09:02:00.787Z,16.08
2018-10-11T09:03:00.854Z,16.11
2018-10-11T09:04:00.912Z,16.07
2018-10-11T09:05:01.000Z,16.05
2018-10-11T09:06:00.838Z,16.15
2018-10-11T09:07:00.818Z,16.15
2018-10-11T09:08:02.611Z,16.23
2018-10-11T09:09:00.726Z,16.27
2018-10-11T09:10:00.772Z,16.23
2018-10-11T09:11:00.769Z,16.31
2018-10-11T09:12:00.735Z,16.45
2018-10-11T09:13:02.656Z,16.50
2018-10-11T09:14:01.699Z,16.57
2018-10-11T09:15:00.686Z,16.63
2018-10-11T09:16:00.699Z,16.66
2018-10-11T09:17:00.650Z,16.60
2018-10-11T09:18:00.638Z,16.63
2018-10-11T09:19:00.670Z,16.50
2018-10-11T09:20:00.616Z,16.48
2018-10-11T09:21:01.608Z,16.45
2018-10-11T09:22:00.592Z,16.48
2018-10-11T09:23:01.681Z,16.45
2018-10-11T09:24:00.566Z,16.45
2018-10-11T09:25:00.600Z,16.48
2018-10-11T09:26:00.641Z,16.43
2018-10-11T09:27:00.578Z,16.52
2018-10-11T09:28:01.503Z,16.49
2018-10-11T09:29:00.595Z,16.53
2018-10-11T09:30:02.073Z,16.50
2018-10-11T09:31:01.469Z,16.57
2018-10-11T09:32:00.517Z,16.48
2018-10-11T09:33:00.629Z,16.57
2018-10-11T09:34:01.092Z,16.58
2018-10-11T09:35:00.475Z,16.63
2018-10-11T09:36:00.477Z,16.64
2018-10-11T09:37:00.462Z,16.64
2018-10-11T09:38:00.441Z,16.67
2018-10-11T09:39:01.384Z,16.49
2018-10-11T09:40:01.055Z,16.56
2018-10-11T09:41:21.480Z,16.53
2018-10-11T09:42:01.336Z,16.56
2018-10-11T09:43:00.370Z,16.49
2018-10-11T09:44:00.369Z,16.42
2018-10-11T09:45:00.313Z,16.52
2018-10-11T09:46:00.433Z,16.56
2018-10-11T09:47:00.297Z,16.56
2018-10-11T09:48:00.276Z,16.50
2018-10-11T09:49:00.277Z,16.58
2018-10-11T09:50:00.301Z,16.63
2018-10-11T09:51:00.282Z,16.61
2018-10-11T09:52:00.250Z,16.58
2018-10-11T09:53:00.272Z,16.67
2018-10-11T09:54:00.260Z,16.81
2018-10-11T09:55:00.257Z,16.85
2018-10-11T09:56:01.403Z,16.89
2018-10-11T09:57:00.213Z,16.89
2018-10-11T09:58:00.563Z,16.88
2018-10-11T09:59:00.288Z,16.98
2018-10-11T10:00:00.153Z,17.01
2018-10-11T10:01:00.186Z,17.12
2018-10-11T10:02:00.178Z,17.12
2018-10-11T10:03:00.176Z,17.19
2018-10-11T10:04:01.130Z,17.14
2018-10-11T10:05:01.212Z,17.11
2018-10-11T10:06:00.190Z,17.15
2018-10-11T10:07:01.041Z,17.15
2018-10-11T10:08:00.145Z,17.16
2018-10-11T10:09:00.086Z,17.19
2018-10-11T10:10:00.091Z,17.23
2018-10-11T10:11:21.160Z,17.23
2018-10-11T10:12:00.649Z,17.19
2018-10-11T10:13:00.073Z,17.26
2018-10-11T10:14:00.592Z,17.28
2018-10-11T10:15:00.012Z,17.23
2018-10-11T10:16:00.060Z,17.31
2018-10-11T10:17:00.070Z,17.33
2018-10-11T10:17:59.998Z,17.36
2018-10-11T10:18:59.980Z,17.40
2018-10-11T10:19:59.987Z,17.38
2018-10-11T10:21:00.076Z,17.43
2018-10-11T10:21:59.934Z,17.41
2018-10-11T10:22:59.972Z,17.55
2018-10-11T10:24:00.942Z,17.55
2018-10-11T10:24:59.883Z,17.41
2018-10-11T10:26:00.576Z,17.48
2018-10-11T10:27:00.050Z,17.43
2018-10-11T10:27:59.862Z,17.52
2018-10-11T10:28:59.941Z,17.51
2018-10-11T10:29:59.943Z,17.48
2018-10-11T10:30:59.896Z,17.54
2018-10-11T10:31:59.893Z,17.66
2018-10-11T10:32:59.872Z,17.75
2018-10-11T10:33:59.849Z,17.78
2018-10-11T10:34:59.808Z,17.78
2018-10-11T10:35:59.773Z,17.81
2018-10-11T10:36:59.876Z,17.89
2018-10-11T10:37:59.764Z,17.87
2018-10-11T10:38:59.730Z,17.82
2018-10-11T10:39:59.812Z,17.81
2018-10-11T10:40:59.724Z,17.74
2018-10-11T10:41:59.701Z,17.78
2018-10-11T10:42:59.762Z,17.92
2018-10-11T10:43:59.693Z,17.81
2018-10-11T10:44:59.621Z,17.92
2018-10-11T10:45:59.684Z,17.93
2018-10-11T10:46:59.673Z,17.86
2018-10-11T10:47:59.588Z,17.90
2018-10-11T10:49:00.620Z,18.02
2018-10-11T10:49:59.633Z,18.07
2018-10-11T10:50:59.608Z,18.17
2018-10-11T10:51:59.575Z,18.15
2018-10-11T10:53:00.082Z,18.21
2018-10-11T10:53:59.699Z,18.37
2018-10-11T10:54:59.593Z,18.35
2018-10-11T10:55:59.523Z,18.48
2018-10-11T10:56:59.593Z,18.67
2018-10-11T10:57:59.517Z,18.67
2018-10-11T10:58:59.510Z,18.69
2018-10-11T10:59:59.516Z,18.73
2018-10-11T11:00:59.456Z,18.84
2018-10-11T11:01:59.490Z,18.85
2018-10-11T11:02:59.591Z,18.94
2018-10-11T11:04:00.556Z,18.92
2018-10-11T11:05:00.474Z,18.98
2018-10-11T11:05:59.737Z,19.02
2018-10-11T11:06:59.449Z,19.00
2018-10-11T11:07:59.548Z,19.10
2018-10-11T11:08:59.596Z,19.16
2018-10-11T11:09:59.394Z,19.28
2018-10-11T11:12:46.025Z,19.32
2018-10-11T11:13:21.436Z,19.29
2018-10-11T11:14:22.335Z,19.37
2018-10-11T11:15:20.912Z,19.36
2018-10-11T11:16:20.897Z,19.51
2018-10-11T11:17:20.827Z,19.54
2018-10-11T11:18:22.073Z,19.63
2018-10-11T11:19:20.812Z,19.56
2018-10-11T11:20:20.894Z,19.54
2018-10-11T11:21:20.946Z,19.76
2018-10-11T11:22:20.967Z,19.87
2018-10-11T11:23:22.065Z,19.94
2018-10-11T11:24:21.341Z,19.98
2018-10-11T11:25:20.896Z,19.92
2018-10-11T11:26:20.813Z,19.81
2018-10-11T11:27:20.724Z,19.91
2018-10-11T11:28:20.733Z,19.74
2018-10-11T11:29:20.720Z,19.69
2018-10-11T11:30:20.694Z,19.63
2018-10-11T11:31:20.727Z,19.51
2018-10-11T11:32:21.367Z,19.37
2018-10-11T11:33:20.633Z,19.33
2018-10-11T11:34:20.668Z,19.21
2018-10-11T11:35:20.625Z,19.28
2018-10-11T11:36:20.661Z,19.40
2018-10-11T11:37:20.602Z,19.58
2018-10-11T11:38:20.637Z,19.59
2018-10-11T11:39:20.742Z,19.68
2018-10-11T11:40:20.655Z,19.91
2018-10-11T11:41:41.628Z,19.91
2018-10-11T11:42:20.595Z,19.98
2018-10-11T11:43:20.515Z,20.02
2018-10-11T11:44:20.682Z,19.94
2018-10-11T11:45:20.609Z,19.84
2018-10-11T11:46:20.679Z,19.55
2018-10-11T11:47:20.541Z,19.62
2018-10-11T11:48:20.461Z,19.73
2018-10-11T11:49:20.486Z,19.62
2018-10-11T11:50:20.451Z,19.76
2018-10-11T11:51:20.448Z,19.74
2018-10-11T11:52:20.466Z,19.81
2018-10-11T11:53:20.485Z,19.95
2018-10-11T11:54:20.382Z,20.01
2018-10-11T11:55:20.423Z,20.13
2018-10-11T11:56:21.924Z,20.13
2018-10-11T11:57:20.423Z,20.11
2018-10-11T11:58:20.359Z,20.21
2018-10-11T11:59:20.365Z,20.21
2018-10-11T12:00:20.349Z,20.28
2018-10-11T12:01:20.346Z,20.31
2018-10-11T12:02:20.323Z,20.43
2018-10-11T12:03:20.494Z,20.32
2018-10-11T12:04:21.300Z,20.18
2018-10-11T12:05:20.306Z,20.31
2018-10-11T12:06:20.371Z,20.32
2018-10-11T12:07:20.357Z,20.39
2018-10-11T12:08:20.360Z,20.38
2018-10-11T12:09:20.263Z,20.69
2018-10-11T12:10:21.233Z,20.77
2018-10-11T12:11:41.334Z,20.66
2018-10-11T12:12:20.221Z,20.61
2018-10-11T12:13:20.502Z,20.66
2018-10-11T12:14:20.179Z,20.67
2018-10-11T12:15:20.146Z,20.64
2018-10-11T12:16:20.199Z,20.32
2018-10-11T12:17:20.219Z,20.28
2018-10-11T12:18:20.132Z,20.33
2018-10-11T12:19:20.146Z,20.38
2018-10-11T12:20:20.158Z,20.62
2018-10-11T12:21:20.365Z,20.77
2018-10-11T12:22:20.218Z,20.76
2018-10-11T12:23:20.125Z,20.84
2018-10-11T12:24:20.099Z,20.77
2018-10-11T12:25:20.121Z,20.73
2018-10-11T12:26:20.065Z,20.77
2018-10-11T12:27:21.154Z,20.62
2018-10-11T12:28:20.135Z,20.74
2018-10-11T12:29:20.137Z,20.87
2018-10-11T12:30:20.076Z,20.89
2018-10-11T12:31:20.045Z,21.01
2018-10-11T12:32:19.959Z,21.07
2018-10-11T12:33:20.042Z,21.19
2018-10-11T12:34:19.995Z,21.16
2018-10-11T12:35:19.928Z,21.07
2018-10-11T12:36:19.954Z,21.19
2018-10-11T12:37:19.935Z,20.98
2018-10-11T12:38:19.946Z,20.84
2018-10-11T12:39:19.961Z,20.92
2018-10-11T12:40:20.026Z,20.99
2018-10-11T12:41:19.943Z,21.09
2018-10-11T12:42:19.964Z,21.10
2018-10-11T12:43:19.895Z,21.10
2018-10-11T12:44:19.883Z,21.16
2018-10-11T12:45:19.892Z,21.09
2018-10-11T12:46:19.885Z,21.16
2018-10-11T12:47:19.844Z,21.19
2018-10-11T12:48:19.833Z,21.28
2018-10-11T12:49:19.985Z,21.09
2018-10-11T12:50:19.831Z,21.22
2018-10-11T12:51:19.869Z,21.35
2018-10-11T12:52:20.979Z,21.44
2018-10-11T12:53:19.855Z,21.38
2018-10-11T12:54:20.798Z,21.43
2018-10-11T12:55:19.778Z,21.52
2018-10-11T12:56:19.803Z,21.44
2018-10-11T12:57:21.110Z,21.50
2018-10-11T12:58:19.757Z,21.52
2018-10-11T12:59:19.756Z,21.53
2018-10-11T13:00:19.721Z,21.52
2018-10-11T13:01:21.129Z,21.58
2018-10-11T13:02:19.679Z,21.50
2018-10-11T13:03:19.763Z,21.64
2018-10-11T13:04:19.681Z,21.53
2018-10-11T13:05:19.674Z,21.46
2018-10-11T13:06:19.589Z,21.27
2018-10-11T13:07:19.619Z,21.07
2018-10-11T13:08:19.980Z,21.06
2018-10-11T13:09:19.657Z,21.16
2018-10-11T13:10:19.557Z,21.10
2018-10-11T13:11:19.649Z,21.16
2018-10-11T13:12:19.591Z,21.16
2018-10-11T13:13:19.570Z,21.09
2018-10-11T13:14:19.546Z,20.99
2018-10-11T13:15:20.537Z,21.09
2018-10-11T13:16:19.518Z,20.99
2018-10-11T13:17:19.517Z,21.07
2018-10-11T13:18:19.500Z,21.13
2018-10-11T13:19:19.930Z,21.21
2018-10-11T13:20:19.459Z,21.27
2018-10-11T13:21:19.515Z,21.24
2018-10-11T13:22:19.513Z,21.24
2018-10-11T13:23:19.441Z,21.42
2018-10-11T13:24:19.432Z,21.43
2018-10-11T13:25:19.475Z,21.40
2018-10-11T13:26:19.452Z,21.27
2018-10-11T13:27:19.429Z,21.31
2018-10-11T13:28:19.394Z,21.19
2018-10-11T13:29:19.413Z,21.27
2018-10-11T13:30:19.419Z,21.37
2018-10-11T13:31:19.359Z,21.29
2018-10-11T13:32:19.330Z,21.35
2018-10-11T13:33:19.375Z,21.29
2018-10-11T13:34:19.318Z,21.34
2018-10-11T13:35:19.341Z,21.28
2018-10-11T13:36:19.358Z,21.38
2018-10-11T13:37:19.310Z,21.56
2018-10-11T13:38:19.237Z,21.47
2018-10-11T13:39:19.269Z,21.52
2018-10-11T13:40:19.271Z,21.53
2018-10-11T13:41:19.407Z,21.59
2018-10-11T13:42:19.280Z,21.62
2018-10-11T13:43:19.261Z,21.67
2018-10-11T13:44:19.208Z,21.75
2018-10-11T13:45:19.302Z,21.68
2018-10-11T13:46:19.176Z,21.53
2018-10-11T13:47:19.217Z,21.42
2018-10-11T13:48:20.137Z,21.38
2018-10-11T13:49:19.175Z,21.40
2018-10-11T13:50:19.119Z,21.47
2018-10-11T13:51:19.150Z,21.53
2018-10-11T13:52:21.684Z,21.64
2018-10-11T13:53:21.324Z,21.50
2018-10-11T13:54:19.162Z,21.54
2018-10-11T13:55:19.110Z,21.61
2018-10-11T13:56:19.150Z,21.62
2018-10-11T13:57:22.783Z,21.71
2018-10-11T13:58:20.022Z,21.71
2018-10-11T13:59:19.118Z,21.69
2018-10-11T14:00:19.011Z,21.67
2018-10-11T14:01:19.010Z,21.58
2018-10-11T14:02:19.013Z,21.54
2018-10-11T14:03:18.959Z,21.46
2018-10-11T14:04:19.016Z,21.32
2018-10-11T14:05:19.015Z,21.42
2018-10-11T14:06:19.027Z,21.46
2018-10-11T14:07:18.924Z,21.37
2018-10-11T14:08:18.921Z,21.49
2018-10-11T14:09:18.895Z,21.50
2018-10-11T14:10:18.927Z,21.46
2018-10-11T14:11:18.953Z,21.38
2018-10-11T14:12:18.872Z,21.34
2018-10-11T14:13:20.688Z,21.27
2018-10-11T14:14:19.875Z,21.16
2018-10-11T14:15:18.832Z,21.31
2018-10-11T14:16:18.837Z,21.49
2018-10-11T14:17:18.864Z,21.50
2018-10-11T14:18:18.824Z,21.61
2018-10-11T14:19:18.779Z,21.62
2018-10-11T14:20:18.799Z,21.64
2018-10-11T14:21:18.815Z,21.58
2018-10-11T14:22:18.776Z,21.62
2018-10-11T14:23:19.966Z,21.52
2018-10-11T14:24:18.755Z,21.49
2018-10-11T14:25:18.794Z,21.50
2018-10-11T14:26:18.703Z,21.40
2018-10-11T14:27:18.709Z,21.29
2018-10-11T14:28:18.869Z,21.37
2018-10-11T14:29:18.766Z,21.38
2018-10-11T14:30:18.874Z,21.21
2018-10-11T14:31:18.695Z,21.25
2018-10-11T14:32:18.730Z,21.34
2018-10-11T14:33:18.637Z,21.34
2018-10-11T14:34:18.987Z,21.40
2018-10-11T14:35:18.642Z,21.49
2018-10-11T14:36:18.645Z,21.43
2018-10-11T14:37:18.733Z,21.37
2018-10-11T14:38:18.634Z,21.35
2018-10-11T14:39:19.128Z,21.40
2018-10-11T14:40:18.539Z,21.56
2018-10-11T14:41:18.547Z,21.56
2018-10-11T14:42:18.586Z,21.37
2018-10-11T14:43:18.582Z,21.37
2018-10-11T14:44:18.505Z,21.31
2018-10-11T14:45:18.562Z,21.37
2018-10-11T14:46:18.543Z,21.43
2018-10-11T14:47:18.477Z,21.47
2018-10-11T14:48:18.521Z,21.53
2018-10-11T14:49:18.556Z,21.53
2018-10-11T14:50:19.581Z,21.54
2018-10-11T14:51:18.580Z,21.62
2018-10-11T14:52:18.557Z,21.69
2018-10-11T14:53:18.587Z,21.80
2018-10-11T14:56:51.610Z,21.58
2018-10-11T14:57:45.156Z,21.61
2018-10-11T14:58:45.149Z,21.56
2018-10-11T14:59:45.441Z,21.47
2018-10-11T15:00:45.269Z,21.49
2018-10-11T15:01:46.893Z,21.40
2018-10-11T15:02:46.157Z,21.46
2018-10-11T15:03:45.056Z,21.46
2018-10-11T15:04:45.139Z,21.44
2018-10-11T15:05:45.376Z,21.34
2018-10-11T15:06:45.238Z,21.35
2018-10-11T15:07:45.420Z,21.34
2018-10-11T15:08:45.257Z,21.38
2018-10-11T15:09:45.049Z,21.42
2018-10-11T15:10:45.095Z,21.28
2018-10-11T15:11:46.295Z,21.13
2018-10-11T15:12:46.034Z,21.13
2018-10-11T15:13:46.988Z,21.06
2018-10-11T15:14:44.986Z,21.14
2018-10-11T15:15:45.044Z,21.06
2018-10-11T15:16:44.954Z,21.04
2018-10-11T15:17:45.015Z,21.07
2018-10-11T15:18:45.183Z,20.94
2018-10-11T15:19:46.595Z,20.92
2018-10-11T15:20:45.176Z,20.88
2018-10-11T15:21:44.949Z,20.89
2018-10-11T15:22:45.653Z,20.88
2018-10-11T15:23:45.078Z,20.85
2018-10-11T15:24:46.536Z,20.89
2018-10-11T15:25:44.825Z,20.87
2018-10-11T15:28:26.201Z,20.84
2018-10-11T15:29:19.705Z,20.92
2018-10-11T15:30:19.263Z,20.79
2018-10-11T15:31:19.292Z,20.76
2018-10-11T15:32:19.164Z,20.67
2018-10-11T15:33:19.099Z,20.73
2018-10-11T15:34:19.036Z,20.84
2018-10-11T15:35:19.097Z,20.73
2018-10-11T15:36:19.146Z,20.69
2018-10-11T15:37:19.067Z,20.61
2018-10-11T15:38:18.978Z,20.51
2018-10-11T15:39:19.072Z,20.52